createdAt,value
2023-03-18T00:00:16.747Z,13.10
2023-03-18T00:02:43.812Z,10.23
2023-03-18T00:05:11.787Z,13.35
2023-03-18T00:07:38.875Z,16.25
2023-03-18T00:10:07.634Z,19.05
2023-03-18T00:12:34.488Z,17.75
2023-03-18T00:15:02.594Z,16.23
2023-03-18T00:17:29.143Z,12.68
2023-03-18T00:19:55.737Z,10.38
2023-03-18T00:22:22.827Z,14.75
2023-03-18T00:24:49.452Z,14.55
2023-03-18T00:27:16.217Z,11.13
2023-03-18T00:29:42.921Z,13.38
2023-03-18T00:32:09.972Z,15.82
2023-03-18T00:34:36.591Z,12.90
2023-03-18T00:37:03.680Z,11.00
2023-03-18T00:39:33.110Z,9.50
2023-03-18T00:42:08.158Z,12.57
2023-03-18T00:44:34.811Z,9.63
2023-03-18T00:47:01.629Z,20.17
2023-03-18T00:49:28.244Z,15.00
2023-03-18T00:51:54.755Z,11.25
2023-03-18T00:54:22.492Z,12.10
2023-03-18T00:56:49.727Z,13.48
2023-03-18T00:59:16.603Z,11.23
2023-03-18T01:01:43.646Z,12.88
2023-03-18T01:04:10.660Z,12.50
2023-03-18T01:06:38.505Z,9.30
2023-03-18T01:09:08.867Z,14.80
2023-03-18T01:11:35.699Z,12.65
2023-03-18T01:14:03.620Z,14.43
2023-03-18T01:16:30.340Z,14.90
2023-03-18T01:18:57.383Z,16.73
2023-03-18T01:21:23.912Z,15.15
2023-03-18T01:23:51.355Z,15.95
2023-03-18T01:26:18.520Z,15.40
2023-03-18T01:28:45.559Z,17.88
2023-03-18T01:31:12.939Z,18.50
2023-03-18T01:33:40.361Z,14.45
2023-03-18T01:36:08.257Z,9.82
2023-03-18T01:38:34.989Z,14.18
2023-03-18T01:41:03.371Z,20.70
2023-03-18T01:43:36.045Z,17.27
2023-03-18T01:46:46.145Z,18.58
2023-03-18T01:49:15.616Z,6.80
2023-03-18T01:51:46.538Z,14.68
2023-03-18T01:54:15.692Z,16.25
2023-03-18T01:56:45.619Z,19.45
2023-03-18T01:59:14.073Z,13.63
2023-03-18T02:01:49.233Z,10.75
2023-03-18T02:04:17.790Z,15.90
2023-03-18T02:06:44.706Z,14.68
2023-03-18T02:09:12.503Z,12.75
2023-03-18T02:11:43.786Z,12.85
2023-03-18T02:14:14.884Z,18.42
2023-03-18T02:16:51.291Z,23.55
2023-03-18T02:19:33.785Z,11.57
2023-03-18T02:22:16.837Z,12.40
2023-03-18T02:24:59.700Z,18.45
2023-03-18T02:27:30.197Z,18.13
2023-03-18T02:30:01.264Z,19.90
2023-03-18T02:32:32.997Z,19.92
2023-03-18T02:35:04.056Z,20.90
2023-03-18T02:37:30.711Z,20.25
2023-03-18T02:40:16.064Z,20.02
2023-03-18T02:42:43.233Z,16.85
2023-03-18T02:45:22.805Z,13.32
2023-03-18T02:47:51.047Z,14.48
2023-03-18T02:50:17.843Z,13.98
2023-03-18T02:52:44.841Z,16.48
2023-03-18T02:55:11.425Z,19.27
2023-03-18T02:57:37.980Z,12.65
2023-03-18T03:00:05.852Z,18.48
2023-03-18T03:02:32.764Z,16.67
2023-03-18T03:04:59.405Z,14.93
2023-03-18T03:07:27.874Z,9.52
2023-03-18T03:09:54.928Z,8.93
2023-03-18T03:12:21.427Z,13.77
2023-03-18T03:14:47.996Z,12.80
2023-03-18T03:17:15.353Z,12.63
2023-03-18T03:19:42.060Z,15.70
2023-03-18T03:22:08.887Z,14.38
2023-03-18T03:24:35.477Z,19.45
2023-03-18T03:27:02.036Z,16.60
2023-03-18T03:29:29.355Z,17.05
2023-03-18T03:31:55.922Z,21.52
2023-03-18T03:34:22.675Z,14.05
2023-03-18T03:36:49.934Z,11.27
2023-03-18T03:39:16.491Z,13.68
2023-03-18T03:41:43.248Z,13.88
2023-03-18T03:44:09.820Z,9.80
2023-03-18T03:46:36.595Z,11.32
2023-03-18T03:49:04.615Z,9.88
2023-03-18T03:51:31.315Z,16.48
2023-03-18T03:53:58.996Z,7.97
2023-03-18T03:56:25.509Z,9.60
2023-03-18T03:58:52.520Z,9.18
2023-03-18T04:01:19.211Z,8.82
2023-03-18T04:03:45.751Z,7.35
2023-03-18T04:06:13.244Z,7.95
2023-03-18T04:08:39.841Z,9.85
2023-03-18T04:11:06.346Z,8.05
2023-03-18T04:13:33.793Z,13.05
2023-03-18T04:16:00.931Z,5.72
2023-03-18T04:18:27.467Z,7.57
2023-03-18T04:20:54.938Z,12.48
2023-03-18T04:23:21.745Z,12.77
2023-03-18T04:25:48.309Z,11.48
2023-03-18T04:28:14.935Z,11.40
2023-03-18T04:30:41.459Z,13.93
2023-03-18T04:33:08.094Z,9.98
2023-03-18T04:35:34.752Z,18.52
2023-03-18T04:38:01.462Z,11.93
2023-03-18T04:40:28.656Z,15.60
2023-03-18T04:42:55.294Z,6.70
2023-03-18T04:45:22.766Z,10.00
2023-03-18T04:47:49.534Z,13.88
2023-03-18T04:50:16.588Z,10.10
2023-03-18T04:52:45.075Z,13.88
2023-03-18T04:55:14.132Z,11.93
2023-03-18T04:57:42.635Z,9.55
2023-03-18T05:00:12.294Z,10.98
2023-03-18T05:02:40.088Z,6.80
2023-03-18T05:05:07.850Z,10.98
2023-03-18T05:07:34.571Z,10.35
2023-03-18T05:10:01.153Z,8.57
2023-03-18T05:12:28.535Z,13.25
2023-03-18T05:14:55.066Z,17.58
2023-03-18T05:17:21.716Z,11.57
2023-03-18T05:19:49.107Z,10.25
2023-03-18T05:22:18.050Z,6.47
2023-03-18T05:24:46.108Z,10.48
2023-03-18T05:27:15.176Z,8.65
2023-03-18T05:29:42.057Z,11.32
2023-03-18T05:32:10.482Z,6.38
2023-03-18T05:34:39.090Z,6.50
2023-03-18T05:37:08.189Z,10.70
2023-03-18T05:39:34.749Z,6.07
2023-03-18T05:42:02.294Z,10.38
2023-03-18T05:44:30.042Z,12.15
2023-03-18T05:46:57.041Z,7.38
2023-03-18T05:49:23.841Z,9.15
2023-03-18T05:51:52.122Z,12.00
2023-03-18T05:54:20.051Z,9.00
2023-03-18T05:56:46.681Z,18.63
2023-03-18T05:59:14.325Z,11.00
2023-03-18T06:01:41.390Z,11.57
2023-03-18T06:04:08.957Z,8.27
2023-03-18T06:06:39.457Z,8.25
2023-03-18T06:09:07.779Z,10.05
2023-03-18T06:11:34.369Z,14.02
2023-03-18T06:14:01.169Z,8.27
2023-03-18T06:16:28.351Z,15.40
2023-03-18T06:18:55.299Z,10.32
2023-03-18T06:21:23.353Z,5.60
2023-03-18T06:23:50.015Z,5.70
2023-03-18T06:26:16.698Z,9.15
2023-03-18T06:28:43.317Z,5.68
2023-03-18T06:31:10.866Z,10.55
2023-03-18T06:33:38.310Z,10.00
2023-03-18T06:36:05.689Z,8.40
2023-03-18T06:38:32.642Z,10.93
2023-03-18T06:40:59.901Z,8.35
2023-03-18T06:43:27.178Z,11.25
2023-03-18T06:45:54.431Z,9.88
2023-03-18T06:48:21.107Z,9.80
2023-03-18T06:50:47.676Z,9.68
2023-03-18T06:53:14.317Z,12.55
2023-03-18T06:55:41.535Z,6.28
2023-03-18T06:58:08.078Z,7.78
2023-03-18T07:00:36.071Z,8.90
2023-03-18T07:03:02.759Z,10.68
2023-03-18T07:05:29.420Z,6.88
2023-03-18T07:07:56.059Z,8.70
2023-03-18T07:10:29.677Z,6.03
2023-03-18T07:12:57.189Z,13.93
2023-03-18T07:15:24.247Z,4.07
2023-03-18T07:17:52.345Z,7.63
2023-03-18T07:20:19.892Z,8.13
2023-03-18T07:22:47.103Z,7.57
2023-03-18T07:25:13.956Z,10.40
2023-03-18T07:27:42.294Z,8.80
2023-03-18T07:30:10.288Z,9.50
2023-03-18T07:32:38.460Z,13.40
2023-03-18T07:35:06.758Z,9.15
2023-03-18T07:37:33.653Z,9.20
2023-03-18T07:40:00.267Z,12.07
2023-03-18T07:42:26.901Z,7.25
2023-03-18T07:44:53.576Z,12.70
2023-03-18T07:47:20.968Z,6.68
2023-03-18T07:49:47.701Z,13.18
2023-03-18T07:52:14.617Z,8.60
2023-03-18T07:54:41.727Z,10.55
2023-03-18T07:57:08.435Z,16.10
2023-03-18T07:59:35.109Z,10.13
2023-03-18T08:02:02.533Z,7.72
2023-03-18T08:04:29.756Z,13.90
2023-03-18T08:06:57.896Z,10.82
2023-03-18T08:09:25.016Z,10.73
2023-03-18T08:11:51.523Z,11.32
2023-03-18T08:14:18.144Z,18.27
2023-03-18T08:16:44.746Z,16.15
2023-03-18T08:19:12.038Z,14.38
2023-03-18T08:21:39.805Z,9.07
2023-03-18T08:24:06.694Z,12.38
2023-03-18T08:26:33.269Z,15.90
2023-03-18T08:28:59.793Z,13.82
2023-03-18T08:31:26.342Z,13.45
2023-03-18T08:33:55.796Z,13.02
2023-03-18T08:36:23.350Z,7.65
2023-03-18T08:38:49.866Z,22.10
2023-03-18T08:41:17.134Z,14.10
2023-03-18T08:43:45.104Z,11.75
2023-03-18T08:46:11.859Z,14.40
2023-03-18T08:48:38.527Z,7.63
2023-03-18T08:51:08.358Z,8.38
2023-03-18T08:53:35.880Z,9.13
2023-03-18T08:56:03.227Z,6.20
2023-03-18T08:58:30.242Z,9.10
2023-03-18T09:00:56.894Z,12.00
2023-03-18T09:03:24.861Z,8.93
2023-03-18T09:05:55.651Z,17.15
2023-03-18T09:08:22.498Z,10.05
2023-03-18T09:10:54.046Z,11.18
2023-03-18T09:13:21.944Z,13.82
2023-03-18T09:15:48.963Z,8.90
2023-03-18T09:18:18.338Z,10.77
2023-03-18T09:20:45.807Z,9.52
2023-03-18T09:23:14.063Z,8.68
2023-03-18T09:25:43.230Z,12.73
2023-03-18T09:28:09.942Z,9.02
2023-03-18T09:30:36.646Z,6.05
2023-03-18T09:33:06.053Z,13.77
2023-03-18T09:35:33.668Z,7.20
2023-03-18T09:38:00.495Z,6.07
2023-03-18T09:40:31.524Z,12.93
2023-03-18T09:43:22.972Z,9.07
2023-03-18T09:46:23.551Z,6.68
2023-03-18T09:49:17.180Z,5.43
2023-03-18T09:52:18.381Z,8.77
2023-03-18T09:54:56.760Z,11.40
2023-03-18T09:57:28.935Z,10.40
2023-03-18T10:00:34.570Z,4.43
2023-03-18T10:03:13.386Z,13.63
2023-03-18T10:05:47.057Z,9.13
2023-03-18T10:08:21.286Z,6.30
2023-03-18T10:10:49.093Z,11.77
2023-03-18T10:13:29.339Z,4.15
2023-03-18T10:15:58.705Z,7.30
2023-03-18T10:18:30.745Z,7.57
2023-03-18T10:21:15.983Z,8.38
2023-03-18T10:23:57.818Z,6.68
2023-03-18T10:26:34.912Z,6.93
2023-03-18T10:29:23.455Z,4.88
2023-03-18T10:32:11.870Z,10.20
2023-03-18T10:35:01.787Z,7.60
2023-03-18T10:37:59.258Z,11.40
2023-03-18T10:40:27.167Z,14.07
2023-03-18T10:42:56.336Z,7.68
2023-03-18T10:45:25.888Z,9.30
2023-03-18T10:48:10.839Z,9.68
2023-03-18T10:50:43.275Z,5.35
2023-03-18T10:53:23.785Z,5.07
2023-03-18T10:56:07.086Z,15.48
2023-03-18T10:58:34.414Z,6.60
2023-03-18T11:01:01.034Z,9.88
2023-03-18T11:03:32.974Z,8.18
2023-03-18T11:06:03.980Z,4.38
2023-03-18T11:08:35.312Z,8.73
2023-03-18T11:11:25.879Z,15.57
2023-03-18T11:13:55.856Z,4.97
2023-03-18T11:16:38.173Z,8.27
2023-03-18T11:19:32.471Z,4.68
2023-03-18T11:22:04.491Z,7.22
2023-03-18T11:24:39.746Z,7.63
2023-03-18T11:27:16.129Z,10.88
2023-03-18T11:29:46.942Z,8.68
2023-03-18T11:32:53.917Z,17.48
2023-03-18T11:35:32.240Z,13.13
2023-03-18T11:38:02.991Z,8.65
2023-03-18T11:40:32.274Z,10.73
2023-03-18T11:43:01.782Z,7.05
2023-03-18T11:45:40.638Z,7.85
2023-03-18T11:48:15.667Z,8.38
2023-03-18T11:50:57.922Z,12.48
2023-03-18T11:53:30.495Z,6.22
2023-03-18T11:56:03.661Z,8.70
2023-03-18T11:58:55.372Z,11.35
2023-03-18T12:01:37.631Z,8.77
2023-03-18T12:04:25.554Z,7.60
2023-03-18T12:07:10.836Z,7.55
2023-03-18T12:09:49.421Z,4.68
2023-03-18T12:12:15.960Z,8.00
2023-03-18T12:15:11.525Z,7.38
2023-03-18T12:18:07.133Z,7.85
2023-03-18T12:20:45.058Z,7.38
2023-03-18T12:23:27.883Z,7.93
2023-03-18T12:26:03.463Z,4.95
2023-03-18T12:28:49.001Z,7.40
2023-03-18T12:31:35.301Z,3.55
2023-03-18T12:34:14.629Z,3.45
2023-03-18T12:37:03.194Z,6.38
2023-03-18T12:39:54.340Z,4.20
2023-03-18T12:42:25.294Z,6.22
2023-03-18T12:45:05.513Z,7.80
2023-03-18T12:47:55.298Z,4.18
2023-03-18T12:50:32.440Z,6.15
2023-03-18T12:53:03.493Z,4.82
2023-03-18T12:55:39.570Z,4.65
2023-03-18T12:58:14.306Z,7.22
2023-03-18T13:01:07.834Z,7.72
2023-03-18T13:03:38.723Z,6.70
2023-03-18T13:06:40.715Z,5.20
2023-03-18T13:09:13.478Z,3.63
2023-03-18T13:11:55.669Z,6.95
2023-03-18T13:14:41.218Z,5.20
2023-03-18T13:17:33.079Z,3.92
2023-03-18T13:20:22.895Z,7.72
2023-03-18T13:23:05.032Z,7.68
2023-03-18T13:25:49.503Z,5.53
2023-03-18T13:28:28.118Z,5.45
2023-03-18T13:31:19.352Z,6.55
2023-03-18T13:33:57.408Z,10.43
2023-03-18T13:36:54.683Z,6.03
2023-03-18T13:39:59.668Z,6.05
2023-03-18T13:42:31.804Z,6.47
2023-03-18T13:45:08.934Z,5.13
2023-03-18T13:47:38.814Z,7.47
2023-03-18T13:50:07.665Z,5.78
2023-03-18T13:52:43.908Z,4.53
2023-03-18T13:55:29.548Z,6.88
2023-03-18T13:58:06.147Z,4.70
2023-03-18T14:00:40.569Z,5.88
2023-03-18T14:03:26.944Z,6.95
2023-03-18T14:06:16.149Z,5.35
2023-03-18T14:08:42.924Z,6.57
2023-03-18T14:11:23.094Z,3.80
2023-03-18T14:13:51.413Z,7.55
2023-03-18T14:16:23.356Z,7.80
2023-03-18T14:18:57.823Z,3.03
2023-03-18T14:21:28.850Z,6.30
2023-03-18T14:24:23.591Z,3.15
2023-03-18T14:27:05.235Z,9.52
2023-03-18T14:29:37.606Z,3.30
2023-03-18T14:32:10.026Z,4.50
2023-03-18T14:34:58.961Z,4.03
2023-03-18T14:37:32.591Z,2.17
2023-03-18T14:40:03.826Z,5.03
2023-03-18T14:42:56.747Z,5.53
2023-03-18T14:45:33.552Z,8.50
2023-03-18T14:48:04.450Z,6.43
2023-03-18T14:50:47.793Z,5.85
2023-03-18T14:53:35.194Z,5.20
2023-03-18T14:56:04.074Z,4.95
2023-03-18T14:58:31.065Z,4.68
2023-03-18T15:01:10.931Z,5.70
2023-03-18T15:03:40.759Z,5.20
2023-03-18T15:06:08.040Z,4.95
2023-03-18T15:08:47.683Z,4.07
2023-03-18T15:11:16.440Z,6.43
2023-03-18T15:13:43.233Z,4.72
2023-03-18T15:16:13.599Z,6.78
2023-03-18T15:18:40.684Z,5.50
2023-03-18T15:21:16.657Z,5.65
2023-03-18T15:23:50.680Z,8.27
2023-03-18T15:26:35.223Z,3.67
2023-03-18T15:29:24.192Z,6.30
2023-03-18T15:31:51.881Z,6.70
2023-03-18T15:34:21.125Z,12.00
2023-03-18T15:36:56.609Z,8.52
2023-03-18T15:39:32.305Z,8.55
2023-03-18T15:42:01.468Z,5.10
2023-03-18T15:44:35.600Z,6.32
2023-03-18T15:47:17.712Z,5.45
2023-03-18T15:49:54.568Z,5.10
2023-03-18T15:52:25.332Z,3.35
2023-03-18T15:54:52.311Z,16.48
2023-03-18T15:57:45.356Z,9.48
2023-03-18T16:00:13.140Z,6.75
2023-03-18T16:02:39.801Z,8.77
2023-03-18T16:05:16.996Z,4.20
2023-03-18T16:07:43.832Z,7.55
2023-03-18T16:10:11.335Z,7.82
2023-03-18T16:12:39.537Z,5.90
2023-03-18T16:15:07.681Z,5.15
2023-03-18T16:17:34.279Z,5.55
2023-03-18T16:20:02.956Z,3.90
2023-03-18T16:22:31.319Z,2.53
2023-03-18T16:24:59.092Z,3.65
2023-03-18T16:27:39.315Z,17.83
2023-03-18T16:30:16.020Z,9.10
2023-03-18T16:32:42.944Z,4.65
2023-03-18T16:35:18.120Z,5.63
2023-03-18T16:37:46.136Z,14.35
2023-03-18T16:41:01.822Z,10.82
2023-03-18T16:43:29.255Z,8.63
2023-03-18T16:46:00.563Z,4.35
2023-03-18T16:48:27.644Z,3.47
2023-03-18T16:50:56.565Z,4.57
2023-03-18T16:53:25.966Z,2.60
2023-03-18T16:55:56.937Z,0.80
2023-03-18T16:58:26.599Z,1.67
2023-03-18T17:00:53.016Z,5.30
2023-03-18T17:03:19.666Z,2.25
2023-03-18T17:05:47.876Z,5.60
2023-03-18T17:08:14.322Z,7.05
2023-03-18T17:10:42.554Z,3.47
2023-03-18T17:13:13.283Z,4.15
2023-03-18T17:15:39.990Z,7.00
2023-03-18T17:18:07.750Z,3.22
2023-03-18T17:20:34.154Z,4.05
2023-03-18T17:23:01.070Z,2.20
2023-03-18T17:25:29.992Z,3.40
2023-03-18T17:27:57.728Z,1.05
2023-03-18T17:30:24.105Z,4.18
2023-03-18T17:32:50.791Z,2.58
2023-03-18T17:35:21.249Z,3.50
2023-03-18T17:37:48.068Z,2.55
2023-03-18T17:40:19.780Z,3.63
2023-03-18T17:42:47.498Z,3.50
2023-03-18T17:45:26.253Z,4.90
2023-03-18T17:47:53.139Z,6.20
2023-03-18T17:50:20.470Z,10.30
2023-03-18T17:52:48.656Z,10.95
2023-03-18T17:55:21.926Z,4.50
2023-03-18T17:57:50.752Z,8.18
2023-03-18T18:00:17.399Z,4.50
2023-03-18T18:02:43.965Z,4.60
2023-03-18T18:05:17.305Z,4.25
2023-03-18T18:07:44.805Z,7.45
2023-03-18T18:10:16.164Z,4.90
2023-03-18T18:12:43.713Z,10.48
2023-03-18T18:15:21.115Z,4.63
2023-03-18T18:17:48.602Z,7.68
2023-03-18T18:20:16.040Z,5.13
2023-03-18T18:22:44.635Z,6.60
2023-03-18T18:25:15.596Z,7.15
2023-03-18T18:27:42.889Z,8.48
2023-03-18T18:30:14.084Z,9.10
2023-03-18T18:32:41.328Z,9.82
2023-03-18T18:35:09.358Z,6.93
2023-03-18T18:37:35.745Z,10.30
2023-03-18T18:40:02.226Z,6.90
2023-03-18T18:42:28.640Z,6.93
2023-03-18T18:44:55.018Z,9.32
2023-03-18T18:47:21.974Z,11.25
2023-03-18T18:49:48.519Z,7.80
2023-03-18T18:52:15.636Z,6.78
2023-03-18T18:54:42.379Z,8.65
2023-03-18T18:57:22.514Z,7.18
2023-03-18T18:59:48.971Z,14.32
2023-03-18T19:02:27.000Z,12.63
2023-03-18T19:04:53.522Z,9.25
2023-03-18T19:07:21.186Z,12.57
2023-03-18T19:09:47.604Z,10.15
2023-03-18T19:12:15.363Z,11.48
2023-03-18T19:14:42.114Z,8.35
2023-03-18T19:17:13.536Z,11.85
2023-03-18T19:19:41.677Z,13.00
2023-03-18T19:22:12.968Z,13.93
2023-03-18T19:24:41.107Z,12.27
2023-03-18T19:27:32.376Z,13.68
2023-03-18T19:30:01.444Z,10.13
2023-03-18T19:32:27.996Z,9.55
2023-03-18T19:34:55.210Z,10.13
2023-03-18T19:37:32.339Z,17.48
2023-03-18T19:40:01.799Z,12.13
2023-03-18T19:42:28.518Z,8.98
2023-03-18T19:44:55.933Z,8.73
2023-03-18T19:47:25.359Z,11.38
2023-03-18T19:49:52.122Z,13.13
2023-03-18T19:52:27.217Z,14.43
2023-03-18T19:54:55.113Z,7.65
2023-03-18T19:57:26.017Z,13.18
2023-03-18T19:59:54.316Z,16.42
2023-03-18T20:02:22.365Z,15.00
2023-03-18T20:04:54.416Z,16.10
2023-03-18T20:07:23.538Z,19.25
2023-03-18T20:09:50.711Z,17.48
2023-03-18T20:12:36.806Z,17.88
2023-03-18T20:15:12.447Z,16.42
2023-03-18T20:17:43.646Z,12.48
2023-03-18T20:20:20.081Z,12.13
2023-03-18T20:22:55.881Z,16.73
2023-03-18T20:25:32.874Z,14.07
2023-03-18T20:28:00.794Z,24.40
2023-03-18T20:30:30.802Z,15.23
2023-03-18T20:32:58.124Z,16.48
2023-03-18T20:35:27.542Z,14.32
2023-03-18T20:37:56.220Z,15.98
2023-03-18T20:40:26.403Z,17.77
2023-03-18T20:42:53.275Z,10.85
2023-03-18T20:45:21.646Z,13.40
2023-03-18T20:47:49.052Z,11.88
2023-03-18T20:50:18.023Z,13.35
2023-03-18T20:52:47.259Z,15.00
2023-03-18T20:55:32.125Z,10.27
2023-03-18T20:58:00.892Z,17.38
2023-03-18T21:00:31.769Z,14.27
2023-03-18T21:02:59.987Z,12.70
2023-03-18T21:05:27.686Z,16.70
2023-03-18T21:07:54.248Z,11.98
2023-03-18T21:10:25.857Z,12.77
2023-03-18T21:12:52.944Z,18.38
2023-03-18T21:15:20.940Z,21.73
2023-03-18T21:17:49.345Z,14.00
2023-03-18T21:20:22.387Z,19.83
2023-03-18T21:22:50.831Z,18.13
2023-03-18T21:25:25.700Z,13.88
2023-03-18T21:27:53.632Z,12.48
2023-03-18T21:30:24.462Z,16.88
2023-03-18T21:32:51.522Z,12.88
2023-03-18T21:35:24.260Z,10.50
2023-03-18T21:37:52.490Z,13.40
2023-03-18T21:40:22.498Z,17.27
2023-03-18T21:42:50.562Z,12.88
2023-03-18T21:45:20.873Z,20.08
2023-03-18T21:47:47.489Z,15.45
2023-03-18T21:50:21.201Z,16.58
2023-03-18T21:52:48.618Z,12.45
2023-03-18T21:55:15.239Z,12.90
2023-03-18T21:57:41.979Z,15.65
2023-03-18T22:00:14.560Z,18.63
2023-03-18T22:02:41.147Z,21.10
2023-03-18T22:05:15.534Z,13.77
2023-03-18T22:07:42.055Z,15.70
2023-03-18T22:10:09.432Z,21.67
2023-03-18T22:12:35.971Z,25.27
2023-03-18T22:15:02.771Z,31.17
2023-03-18T22:17:32.227Z,27.73
2023-03-18T22:20:01.048Z,27.58
2023-03-18T22:22:36.797Z,22.38
2023-03-18T22:25:03.960Z,25.23
2023-03-18T22:27:31.738Z,21.80
2023-03-18T22:30:00.433Z,19.55
2023-03-18T22:32:39.111Z,23.42
2023-03-18T22:35:13.703Z,15.68
2023-03-18T22:37:40.503Z,22.80
2023-03-18T22:40:10.496Z,28.95
2023-03-18T22:42:37.032Z,26.98
2023-03-18T22:45:03.902Z,35.65
2023-03-18T22:47:30.409Z,27.00
2023-03-18T22:49:56.941Z,20.23
2023-03-18T22:52:29.113Z,29.17
2023-03-18T22:55:01.206Z,22.58
2023-03-18T22:57:28.538Z,21.98
2023-03-18T22:59:56.804Z,26.80
2023-03-18T23:02:26.590Z,24.05
2023-03-18T23:04:55.070Z,23.48
2023-03-18T23:07:27.912Z,24.70
2023-03-18T23:09:57.310Z,21.73
2023-03-18T23:12:26.023Z,21.08
2023-03-18T23:14:53.353Z,23.77
2023-03-18T23:17:23.407Z,24.45
2023-03-18T23:19:51.150Z,31.92
2023-03-18T23:22:30.895Z,24.88
2023-03-18T23:24:58.409Z,27.38
2023-03-18T23:27:27.175Z,28.38
2023-03-18T23:29:54.996Z,31.40
2023-03-18T23:32:23.683Z,23.95
2023-03-18T23:34:50.516Z,24.15
2023-03-18T23:37:17.633Z,26.25
2023-03-18T23:39:46.188Z,24.65
2023-03-18T23:42:17.700Z,35.45
2023-03-18T23:44:44.637Z,29.73
2023-03-18T23:47:12.526Z,30.27
2023-03-18T23:49:39.783Z,19.35
2023-03-18T23:52:13.202Z,23.60
2023-03-18T23:54:40.032Z,14.10
2023-03-18T23:57:09.127Z,13.95
2023-03-18T23:59:36.279Z,10.80
